Time;durP1;ratioP1;P1;durP2;ratioP2;P2;SDS_P1;SDS_P2;PMS_P1;PMS_P2;Temp;Humidity;BMP_temperature;BMP_pressure;BME280_temperature;BME280_humidity;BME280_pressure;Samples;Min_cycle;Max_cycle;Signal;HPM_P1;HPM_P2
2021/10/10 00:01:10;;;;;;;32.45;30.05;;;7.60;92.60;;;;;;5050878;28;20243;-71
2021/10/10 00:03:37;;;;;;;33.78;31.17;;;7.60;92.60;;;;;;5050373;28;20215;-72
2021/10/10 00:06:05;;;;;;;34.78;31.88;;;7.60;92.50;;;;;;5055818;28;20559;-71
2021/10/10 00:08:32;;;;;;;32.53;29.83;;;7.50;92.60;;;;;;5051432;28;20195;-71
2021/10/10 00:10:59;;;;;;;32.65;29.75;;;7.50;92.50;;;;;;5048911;28;20232;-71
2021/10/10 00:13:26;;;;;;;34.42;31.60;;;7.40;92.70;;;;;;5049677;28;20189;-71
2021/10/10 00:15:53;;;;;;;33.05;30.30;;;7.40;92.60;;;;;;5058014;28;20198;-71
2021/10/10 00:18:20;;;;;;;32.50;29.67;;;7.40;92.70;;;;;;5047605;28;20229;-71
2021/10/10 00:20:47;;;;;;;32.53;29.85;;;7.30;92.80;;;;;;5045241;28;20221;-70
2021/10/10 00:23:15;;;;;;;33.05;30.55;;;7.30;93.00;;;;;;5050636;28;20275;-70
2021/10/10 00:25:42;;;;;;;31.77;29.40;;;7.30;92.80;;;;;;5048670;28;20203;-71
2021/10/10 00:28:09;;;;;;;34.05;31.25;;;7.30;92.80;;;;;;5048357;28;20289;-71
2021/10/10 00:30:36;;;;;;;33.83;31.13;;;7.20;92.80;;;;;;5052437;28;20219;-71
2021/10/10 00:33:03;;;;;;;33.47;30.77;;;7.20;93.10;;;;;;5049379;28;20243;-71
2021/10/10 00:35:30;;;;;;;34.33;31.52;;;7.20;93.50;;;;;;5050852;28;20207;-71
2021/10/10 00:37:57;;;;;;;33.47;30.77;;;7.20;93.00;;;;;;5049801;28;20220;-70
2021/10/10 00:40:25;;;;;;;34.20;30.85;;;7.20;93.10;;;;;;5047802;28;20416;-70
2021/10/10 00:42:52;;;;;;;32.58;29.80;;;7.20;93.50;;;;;;5048720;28;20206;-70
2021/10/10 00:45:19;;;;;;;31.30;28.95;;;7.20;93.00;;;;;;5042289;28;20203;-71
2021/10/10 00:47:46;;;;;;;33.03;30.35;;;7.20;92.70;;;;;;5048401;28;20193;-71
2021/10/10 00:50:13;;;;;;;34.58;31.75;;;7.20;93.00;;;;;;5055880;28;20279;-71
2021/10/10 00:52:42;;;;;;;32.00;29.60;;;7.20;93.10;;;;;;5050647;28;20218;-70
2021/10/10 00:55:10;;;;;;;32.20;29.80;;;7.10;92.70;;;;;;5050000;28;20458;-71
2021/10/10 00:57:42;;;;;;;33.55;30.65;;;7.10;92.60;;;;;;5048223;28;20216;-71
2021/10/10 01:00:09;;;;;;;31.63;29.23;;;7.10;92.60;;;;;;5054504;28;20203;-71
2021/10/10 01:02:36;;;;;;;33.03;30.33;;;7.00;92.70;;;;;;5049869;28;20199;-70
2021/10/10 01:05:04;;;;;;;32.42;29.92;;;7.00;92.40;;;;;;5039618;28;20211;-71
2021/10/10 01:07:31;;;;;;;31.52;28.98;;;7.00;92.40;;;;;;5049305;28;20203;-71
2021/10/10 01:09:59;;;;;;;32.17;29.80;;;6.90;92.20;;;;;;5052878;28;20205;-71
2021/10/10 01:12:26;;;;;;;31.95;29.48;;;6.90;92.30;;;;;;5052612;28;20211;-71
2021/10/10 01:14:55;;;;;;;33.05;30.17;;;6.80;92.80;;;;;;5051735;28;20585;-71
2021/10/10 01:17:24;;;;;;;33.42;30.88;;;6.70;93.00;;;;;;5052151;28;20683;-71
2021/10/10 01:19:53;;;;;;;32.40;30.10;;;6.80;93.00;;;;;;5048287;28;20567;-71
2021/10/10 01:22:22;;;;;;;32.13;29.83;;;6.80;93.00;;;;;;5044540;28;20311;-71
2021/10/10 01:24:50;;;;;;;31.42;28.98;;;6.80;92.90;;;;;;5051459;28;20779;-71
2021/10/10 01:27:17;;;;;;;31.52;29.13;;;6.70;92.90;;;;;;5049572;28;21882;-71
2021/10/10 01:29:44;;;;;;;33.25;30.65;;;6.70;92.90;;;;;;5050539;28;20698;-71
2021/10/10 01:32:11;;;;;;;33.38;30.63;;;6.70;92.90;;;;;;5051349;28;20702;-70
2021/10/10 01:34:43;;;;;;;31.65;29.25;;;6.70;92.80;;;;;;5047701;28;21131;-71
2021/10/10 01:37:09;;;;;;;33.22;30.38;;;6.70;92.70;;;;;;5048026;28;20209;-71
2021/10/10 01:39:38;;;;;;;31.10;28.70;;;6.60;92.80;;;;;;5048942;28;20223;-71
2021/10/10 01:42:05;;;;;;;33.72;31.15;;;6.60;92.70;;;;;;5052389;28;20673;-71
2021/10/10 01:44:32;;;;;;;32.60;30.27;;;6.60;92.60;;;;;;5041148;28;20211;-71
2021/10/10 01:46:59;;;;;;;31.13;28.92;;;6.60;92.90;;;;;;5050408;28;20199;-71
2021/10/10 01:49:26;;;;;;;33.17;30.60;;;6.60;92.80;;;;;;5047866;28;20295;-71
2021/10/10 01:51:52;;;;;;;32.85;30.25;;;6.50;92.80;;;;;;5053416;28;20301;-70
2021/10/10 01:54:19;;;;;;;31.10;28.70;;;6.50;92.90;;;;;;5047504;28;20221;-70
2021/10/10 01:56:47;;;;;;;31.70;29.33;;;6.50;93.00;;;;;;5056607;28;20305;-71
2021/10/10 01:59:14;;;;;;;32.30;30.08;;;6.50;92.90;;;;;;5046835;28;20591;-70
2021/10/10 02:01:41;;;;;;;34.00;30.92;;;6.40;92.90;;;;;;5045897;28;20657;-71
2021/10/10 02:04:08;;;;;;;33.67;30.98;;;6.40;92.60;;;;;;5049291;28;20198;-71
2021/10/10 02:06:35;;;;;;;32.42;29.92;;;6.40;92.50;;;;;;5053874;28;20205;-71
2021/10/10 02:09:02;;;;;;;34.65;32.10;;;6.40;92.50;;;;;;5046166;28;20195;-71
2021/10/10 02:11:29;;;;;;;34.13;31.58;;;6.30;92.50;;;;;;5054901;28;20846;-71
2021/10/10 02:13:57;;;;;;;32.97;30.38;;;6.30;92.80;;;;;;5048143;28;20668;-71
2021/10/10 02:16:24;;;;;;;34.20;31.75;;;6.20;93.20;;;;;;5043565;28;20803;-71
2021/10/10 02:18:50;;;;;;;33.58;31.00;;;6.20;93.20;;;;;;5049035;28;20219;-71
2021/10/10 02:21:17;;;;;;;33.88;31.08;;;6.20;93.30;;;;;;5052938;28;20225;-71
2021/10/10 02:23:44;;;;;;;33.05;30.50;;;6.10;93.30;;;;;;5047377;28;20198;-71
2021/10/10 02:26:11;;;;;;;34.53;31.85;;;6.10;93.30;;;;;;5051322;28;20660;-71
2021/10/10 02:28:38;;;;;;;33.53;30.92;;;6.10;93.30;;;;;;5044695;28;20195;-71
2021/10/10 02:31:06;;;;;;;33.72;31.23;;;6.00;93.50;;;;;;5043936;28;20321;-71
2021/10/10 02:33:33;;;;;;;33.25;30.45;;;6.10;93.30;;;;;;5047188;28;20404;-71
2021/10/10 02:36:00;;;;;;;35.70;32.88;;;6.00;93.20;;;;;;5048932;28;20307;-71
2021/10/10 02:38:27;;;;;;;33.97;31.50;;;6.00;93.40;;;;;;5048334;28;20721;-71
2021/10/10 02:40:54;;;;;;;34.50;31.75;;;6.00;93.40;;;;;;5047533;28;20298;-70
2021/10/10 02:43:21;;;;;;;34.25;31.67;;;6.10;93.10;;;;;;5046897;28;20209;-70
2021/10/10 02:45:47;;;;;;;36.10;33.30;;;6.00;93.00;;;;;;5040705;28;20200;-71
2021/10/10 02:48:16;;;;;;;34.17;31.40;;;6.00;93.20;;;;;;5047582;28;20189;-70
2021/10/10 02:50:43;;;;;;;34.25;31.33;;;5.90;93.40;;;;;;5045911;28;20529;-71
2021/10/10 02:53:10;;;;;;;34.08;31.55;;;5.90;93.20;;;;;;5046508;28;20200;-71
2021/10/10 02:55:37;;;;;;;34.95;32.25;;;5.90;93.20;;;;;;5051342;28;20207;-71
2021/10/10 02:58:04;;;;;;;34.22;31.52;;;5.90;92.90;;;;;;5047632;28;20307;-71
2021/10/10 03:00:30;;;;;;;33.88;31.38;;;5.90;92.70;;;;;;5045034;28;20225;-71
2021/10/10 03:02:57;;;;;;;33.72;31.23;;;5.80;92.80;;;;;;5047044;28;20207;-71
2021/10/10 03:05:26;;;;;;;33.13;30.75;;;5.80;93.10;;;;;;5049297;28;20235;-71
2021/10/10 03:07:53;;;;;;;33.67;30.58;;;5.80;93.30;;;;;;5047964;28;20190;-71
2021/10/10 03:10:20;;;;;;;33.97;31.23;;;5.80;93.20;;;;;;5045903;28;20223;-70
2021/10/10 03:12:47;;;;;;;34.08;31.48;;;5.70;93.30;;;;;;5047387;28;20198;-71
2021/10/10 03:15:14;;;;;;;34.30;31.80;;;5.70;93.30;;;;;;5046501;28;20192;-71
2021/10/10 03:17:41;;;;;;;34.95;32.25;;;5.80;93.30;;;;;;5047507;28;20198;-71
2021/10/10 03:20:09;;;;;;;34.65;31.98;;;5.70;93.30;;;;;;5045507;28;20193;-70
2021/10/10 03:22:38;;;;;;;32.30;29.75;;;5.70;93.30;;;;;;5046853;28;20192;-71
2021/10/10 03:25:05;;;;;;;33.58;30.88;;;5.70;93.10;;;;;;5051522;28;20577;-71
2021/10/10 03:27:32;;;;;;;34.70;32.40;;;5.70;93.10;;;;;;5046973;28;20201;-71
2021/10/10 03:29:59;;;;;;;32.25;29.58;;;5.70;93.30;;;;;;5041666;28;20568;-70
2021/10/10 03:32:26;;;;;;;33.78;31.17;;;5.60;93.30;;;;;;5046481;28;20659;-71
2021/10/10 03:34:53;;;;;;;32.30;29.80;;;5.60;93.40;;;;;;5046928;28;20439;-71
2021/10/10 03:37:20;;;;;;;30.70;28.52;;;5.70;93.20;;;;;;5047692;28;20284;-71
2021/10/10 03:39:48;;;;;;;32.85;30.30;;;5.70;92.90;;;;;;5047531;28;20410;-71
2021/10/10 03:42:15;;;;;;;32.22;30.02;;;5.60;93.00;;;;;;5048609;28;20219;-71
2021/10/10 03:44:42;;;;;;;34.13;31.15;;;5.70;92.60;;;;;;5045599;28;20206;-70
2021/10/10 03:47:09;;;;;;;32.75;30.25;;;5.60;92.70;;;;;;5047931;28;20339;-71
2021/10/10 03:49:36;;;;;;;33.38;30.88;;;5.50;92.90;;;;;;5046463;28;20208;-71
2021/10/10 03:52:03;;;;;;;33.85;31.33;;;5.50;93.10;;;;;;5046363;28;20263;-70
2021/10/10 03:57:20;;;;;;;33.65;30.80;;;5.50;94.40;;;;;;5049119;28;20680;-71
2021/10/10 03:59:49;;;;;;;33.35;30.77;;;5.50;94.30;;;;;;5048070;28;20231;-70
2021/10/10 04:02:16;;;;;;;32.50;30.05;;;5.50;93.30;;;;;;5048388;28;20217;-71
2021/10/10 04:04:43;;;;;;;32.78;30.33;;;5.50;93.10;;;;;;5051481;28;20271;-71
2021/10/10 04:07:10;;;;;;;33.05;30.38;;;5.50;93.20;;;;;;5053262;28;20737;-71
2021/10/10 04:09:36;;;;;;;35.67;32.80;;;5.40;93.00;;;;;;5050205;28;20215;-71
2021/10/10 04:12:04;;;;;;;34.78;31.98;;;5.40;93.90;;;;;;5051567;28;20311;-71
2021/10/10 04:14:32;;;;;;;34.20;31.70;;;5.40;94.30;;;;;;5047793;28;20285;-71
2021/10/10 04:16:59;;;;;;;33.63;30.92;;;5.40;94.00;;;;;;5054405;28;20203;-70
2021/10/10 04:19:26;;;;;;;32.78;30.40;;;5.30;93.70;;;;;;5044879;28;20308;-70
2021/10/10 04:21:53;;;;;;;34.15;31.50;;;5.40;93.50;;;;;;5050196;28;20223;-70
2021/10/10 04:24:20;;;;;;;34.17;31.30;;;5.40;93.10;;;;;;5050428;28;20283;-70
2021/10/10 04:26:47;;;;;;;32.20;29.88;;;5.30;93.10;;;;;;5051198;28;20753;-70
2021/10/10 04:29:14;;;;;;;34.60;32.00;;;5.30;93.00;;;;;;5050927;28;20279;-71
2021/10/10 04:31:42;;;;;;;32.20;29.80;;;5.30;92.90;;;;;;5049355;28;20227;-71
2021/10/10 04:34:10;;;;;;;32.17;29.70;;;5.20;92.90;;;;;;5049973;28;20192;-70
2021/10/10 04:36:37;;;;;;;32.42;30.02;;;5.20;92.90;;;;;;5053671;28;20201;-71
2021/10/10 04:39:04;;;;;;;31.88;29.27;;;5.20;93.10;;;;;;5050091;28;20220;-71
2021/10/10 04:41:31;;;;;;;33.40;30.70;;;5.20;93.00;;;;;;5049362;28;20208;-71
2021/10/10 04:43:58;;;;;;;32.58;30.17;;;5.10;93.10;;;;;;5049754;28;20742;-71
2021/10/10 04:46:25;;;;;;;33.58;30.80;;;5.10;93.10;;;;;;5051997;28;20640;-71
2021/10/10 04:48:53;;;;;;;33.65;30.98;;;5.10;92.90;;;;;;5051105;28;20292;-71
2021/10/10 04:51:20;;;;;;;33.00;30.30;;;5.10;92.80;;;;;;5049380;28;20280;-71
2021/10/10 04:53:47;;;;;;;33.08;30.58;;;5.00;93.00;;;;;;5051302;28;20348;-71
2021/10/10 04:56:13;;;;;;;34.47;31.58;;;5.00;92.60;;;;;;5048138;28;20678;-71
2021/10/10 04:58:40;;;;;;;32.92;30.70;;;5.00;92.70;;;;;;5050694;28;20749;-71
2021/10/10 05:01:07;;;;;;;32.85;30.42;;;4.90;92.80;;;;;;5046217;28;20709;-71
2021/10/10 05:03:35;;;;;;;34.45;31.90;;;4.90;92.80;;;;;;5048949;28;20745;-71
2021/10/10 05:06:03;;;;;;;34.72;32.03;;;4.80;93.30;;;;;;5050577;28;20316;-70
2021/10/10 05:08:30;;;;;;;34.05;31.45;;;4.80;93.50;;;;;;5050764;28;20199;-70
2021/10/10 05:10:57;;;;;;;33.88;31.10;;;4.90;93.30;;;;;;5049929;28;20212;-71
2021/10/10 05:13:24;;;;;;;33.55;30.92;;;4.80;93.60;;;;;;5050139;28;20200;-70
2021/10/10 05:15:51;;;;;;;34.13;31.63;;;4.80;93.40;;;;;;5056928;28;20208;-71
2021/10/10 05:18:17;;;;;;;34.35;31.55;;;4.80;93.20;;;;;;5050417;28;20201;-71
2021/10/10 05:20:44;;;;;;;33.38;30.95;;;4.80;93.30;;;;;;5049082;28;20216;-70
2021/10/10 05:23:15;;;;;;;33.85;31.25;;;4.80;93.10;;;;;;5050602;28;20669;-71
2021/10/10 05:25:42;;;;;;;34.13;31.50;;;4.80;93.10;;;;;;5049757;28;20202;-71
2021/10/10 05:28:09;;;;;;;36.47;33.67;;;4.70;93.40;;;;;;5049570;28;20220;-71
2021/10/10 05:30:36;;;;;;;36.03;32.53;;;4.70;93.50;;;;;;5050579;28;20209;-71
2021/10/10 05:33:03;;;;;;;35.00;32.40;;;4.70;93.40;;;;;;5050292;28;20193;-71
2021/10/10 05:35:30;;;;;;;34.55;31.85;;;4.80;93.30;;;;;;5054352;28;20200;-71
2021/10/10 05:38:46;;;;;;;33.72;31.33;;;4.70;93.40;;;;;;5048557;28;20199;-71
2021/10/10 05:41:14;;;;;;;34.80;32.28;;;4.80;93.30;;;;;;5046475;28;20232;-71
2021/10/10 05:43:41;;;;;;;34.85;32.20;;;4.70;93.30;;;;;;5046849;28;20288;-71
2021/10/10 05:46:08;;;;;;;34.00;31.50;;;4.70;93.20;;;;;;5041480;28;20223;-71
2021/10/10 05:48:35;;;;;;;35.42;32.65;;;4.70;93.20;;;;;;5048584;28;20214;-71
2021/10/10 05:51:02;;;;;;;34.60;32.00;;;4.80;92.90;;;;;;5059639;28;20563;-71
2021/10/10 05:53:29;;;;;;;37.15;34.08;;;4.80;93.10;;;;;;5048796;28;20196;-71
2021/10/10 05:55:59;;;;;;;34.17;31.67;;;4.80;93.10;;;;;;5049392;28;20208;-71
2021/10/10 05:58:30;;;;;;;36.50;33.67;;;4.80;93.10;;;;;;5048571;28;20207;-71
2021/10/10 06:00:57;;;;;;;33.42;30.98;;;4.80;92.70;;;;;;5047750;28;20281;-71
2021/10/10 06:03:24;;;;;;;36.53;33.72;;;4.80;92.50;;;;;;5048892;28;20205;-71
2021/10/10 06:05:51;;;;;;;33.65;31.25;;;4.90;92.20;;;;;;5048972;28;20201;-71
2021/10/10 06:08:18;;;;;;;36.65;33.65;;;4.90;92.20;;;;;;5048226;28;20581;-71
2021/10/10 06:10:45;;;;;;;34.13;31.52;;;4.90;92.00;;;;;;5046970;28;20244;-71
2021/10/10 06:13:12;;;;;;;35.80;33.22;;;4.90;92.20;;;;;;5049649;28;20201;-71
2021/10/10 06:15:41;;;;;;;35.90;32.78;;;5.00;92.00;;;;;;5046251;28;20193;-71
2021/10/10 06:18:09;;;;;;;35.53;32.72;;;4.90;92.10;;;;;;5047083;28;20193;-71
2021/10/10 06:20:36;;;;;;;35.08;32.47;;;5.00;92.00;;;;;;5049467;28;20220;-71
2021/10/10 06:23:03;;;;;;;34.55;31.83;;;4.90;92.20;;;;;;5039710;28;20193;-71
2021/10/10 06:25:30;;;;;;;35.88;32.80;;;5.00;92.20;;;;;;5047944;28;20554;-71
2021/10/10 06:27:57;;;;;;;34.30;31.65;;;5.00;91.90;;;;;;5048318;28;20198;-71
2021/10/10 06:30:24;;;;;;;34.97;32.40;;;5.00;91.80;;;;;;5046721;28;20956;-71
2021/10/10 06:32:52;;;;;;;36.00;33.15;;;5.00;91.90;;;;;;5046677;28;20663;-71
2021/10/10 06:35:19;;;;;;;108.45;38.63;;;5.10;92.20;;;;;;5044315;28;20197;-72
2021/10/10 06:37:46;;;;;;;35.15;32.05;;;5.20;91.90;;;;;;5042354;28;20646;-70
2021/10/10 06:40:13;;;;;;;35.72;33.00;;;5.30;91.90;;;;;;5052701;28;20227;-70
2021/10/10 06:42:40;;;;;;;34.85;32.25;;;5.40;93.40;;;;;;5053727;28;20283;-71
2021/10/10 06:45:08;;;;;;;35.80;33.20;;;5.40;92.50;;;;;;5050532;28;20459;-70
2021/10/10 06:47:36;;;;;;;34.40;31.80;;;5.70;92.20;;;;;;5048510;28;20209;-70
2021/10/10 06:50:05;;;;;;;35.25;32.60;;;5.80;91.00;;;;;;5043122;28;20196;-70
2021/10/10 06:52:32;;;;;;;34.22;31.60;;;5.80;90.80;;;;;;5044124;28;20666;-71
2021/10/10 06:54:59;;;;;;;34.28;31.67;;;5.70;90.80;;;;;;5046515;28;20273;-70
2021/10/10 06:57:29;;;;;;;34.20;31.80;;;5.80;91.00;;;;;;5042409;28;20290;-71
2021/10/10 06:59:58;;;;;;;37.42;34.13;;;5.80;91.00;;;;;;5054641;28;20217;-71
2021/10/10 07:02:25;;;;;;;37.45;33.85;;;5.90;90.80;;;;;;5062413;28;20204;-71
2021/10/10 07:04:52;;;;;;;33.65;31.25;;;6.00;90.70;;;;;;5041853;28;20211;-72
2021/10/10 07:07:20;;;;;;;35.47;32.78;;;6.10;90.50;;;;;;5046075;28;20235;-70
2021/10/10 07:09:47;;;;;;;34.83;31.95;;;6.20;90.60;;;;;;5044234;28;20204;-71
2021/10/10 07:12:14;;;;;;;36.83;34.10;;;6.30;90.20;;;;;;5051908;28;20217;-72
2021/10/10 07:14:41;;;;;;;34.95;32.05;;;6.40;90.00;;;;;;5044515;28;20197;-72
2021/10/10 07:17:08;;;;;;;35.88;32.92;;;6.50;89.90;;;;;;5049471;28;20658;-71
2021/10/10 07:19:41;;;;;;;35.00;32.05;;;6.60;89.80;;;;;;5049219;28;20716;-71
2021/10/10 07:22:15;;;;;;;37.75;34.90;;;6.70;89.60;;;;;;5047424;28;20265;-72
2021/10/10 07:24:57;;;;;;;38.03;34.72;;;6.90;89.40;;;;;;5048108;28;20202;-72
2021/10/10 07:27:24;;;;;;;39.22;35.83;;;7.00;89.10;;;;;;5053645;28;20207;-72
2021/10/10 07:29:51;;;;;;;40.55;36.95;;;7.10;89.10;;;;;;5043440;28;20195;-71
2021/10/10 07:32:18;;;;;;;38.70;35.45;;;7.20;89.00;;;;;;5047300;28;20224;-72
2021/10/10 07:34:45;;;;;;;36.58;33.58;;;7.30;88.90;;;;;;5045255;28;20294;-70
2021/10/10 07:37:12;;;;;;;36.53;33.72;;;7.40;88.60;;;;;;5048649;28;20200;-71
2021/10/10 07:39:38;;;;;;;36.00;33.05;;;7.50;88.50;;;;;;5059030;28;20842;-70
2021/10/10 07:42:08;;;;;;;36.60;33.35;;;7.60;88.20;;;;;;5065671;28;20312;-71
2021/10/10 07:44:40;;;;;;;36.83;33.63;;;7.70;88.10;;;;;;5043320;28;20211;-70
2021/10/10 07:47:15;;;;;;;37.35;34.35;;;7.80;87.90;;;;;;5053339;28;20299;-69
2021/10/10 07:49:43;;;;;;;39.65;35.40;;;8.00;87.50;;;;;;5047768;28;20533;-70
2021/10/10 07:52:10;;;;;;;36.55;33.33;;;8.00;87.40;;;;;;5048362;28;20289;-73
2021/10/10 07:54:37;;;;;;;58.08;46.45;;;8.10;87.30;;;;;;5036679;28;21862;-76
2021/10/10 07:57:04;;;;;;;54.55;45.78;;;8.20;87.20;;;;;;5048592;28;20242;-70
2021/10/10 07:59:32;;;;;;;52.80;45.38;;;8.30;87.00;;;;;;5050471;28;20219;-70
2021/10/10 08:01:59;;;;;;;41.03;37.50;;;8.30;86.70;;;;;;5050699;28;20311;-69
2021/10/10 08:04:27;;;;;;;38.65;35.30;;;8.50;86.30;;;;;;5048808;28;20290;-70
2021/10/10 08:06:55;;;;;;;38.78;35.78;;;8.50;86.10;;;;;;5038553;28;20542;-72
2021/10/10 08:09:22;;;;;;;36.83;33.65;;;8.60;86.00;;;;;;5049595;28;20287;-72
2021/10/10 08:11:49;;;;;;;36.28;33.45;;;8.80;85.40;;;;;;5053551;28;20724;-71
2021/10/10 08:14:16;;;;;;;38.95;35.70;;;8.80;85.00;;;;;;5050701;28;20216;-72
2021/10/10 08:16:45;;;;;;;36.83;33.63;;;8.90;84.70;;;;;;5055247;28;20291;-72
2021/10/10 08:19:12;;;;;;;36.33;33.45;;;9.00;84.70;;;;;;5051155;28;20280;-73
2021/10/10 08:21:39;;;;;;;37.72;34.53;;;9.00;84.00;;;;;;5062605;28;20224;-72
2021/10/10 08:24:06;;;;;;;39.17;35.80;;;9.10;83.90;;;;;;5044735;28;20292;-71
2021/10/10 08:26:34;;;;;;;36.67;33.97;;;9.20;83.60;;;;;;5052445;28;20275;-71
2021/10/10 08:29:01;;;;;;;39.10;35.45;;;9.30;83.50;;;;;;5049682;28;20201;-71
2021/10/10 08:31:28;;;;;;;37.10;34.00;;;9.40;83.10;;;;;;5048798;28;20224;-71
2021/10/10 08:33:56;;;;;;;36.27;33.53;;;9.50;82.40;;;;;;5047622;28;20467;-71
2021/10/10 08:36:23;;;;;;;38.35;35.22;;;9.50;81.60;;;;;;5055373;28;20487;-72
2021/10/10 08:38:50;;;;;;;39.70;36.57;;;9.60;81.30;;;;;;5053185;28;20673;-71
2021/10/10 08:41:24;;;;;;;37.70;34.73;;;9.70;80.40;;;;;;5048852;28;20491;-68
2021/10/10 08:43:54;;;;;;;38.80;35.80;;;9.70;81.10;;;;;;5044198;28;20447;-69
2021/10/10 08:46:24;;;;;;;37.20;34.45;;;9.70;84.50;;;;;;5050780;28;20461;-70
2021/10/10 08:48:52;;;;;;;37.97;34.80;;;9.80;83.10;;;;;;5047624;28;20658;-71
2021/10/10 08:51:21;;;;;;;38.17;35.27;;;9.80;80.90;;;;;;5050371;28;20549;-70
2021/10/10 08:53:48;;;;;;;41.03;37.93;;;9.90;80.80;;;;;;5047945;28;20873;-70
2021/10/10 08:56:15;;;;;;;39.37;36.37;;;10.00;80.20;;;;;;5048190;28;20467;-70
2021/10/10 08:58:46;;;;;;;37.23;34.27;;;10.10;79.10;;;;;;5046835;28;20463;-70
2021/10/10 09:01:17;;;;;;;38.33;35.30;;;10.30;77.90;;;;;;5045596;28;20483;-70
2021/10/10 09:03:48;;;;;;;35.50;32.80;;;10.40;76.40;;;;;;5049568;28;20816;-70
2021/10/10 09:06:15;;;;;;;36.17;33.37;;;10.40;77.20;;;;;;5047252;28;20559;-70
2021/10/10 09:08:44;;;;;;;38.40;35.57;;;10.50;76.60;;;;;;5047207;28;20461;-70
2021/10/10 09:11:11;;;;;;;36.40;33.17;;;10.50;76.30;;;;;;5047826;28;20548;-70
2021/10/10 09:13:40;;;;;;;36.57;33.47;;;10.70;76.60;;;;;;5044171;28;20499;-70
2021/10/10 09:16:08;;;;;;;36.17;33.27;;;10.80;75.40;;;;;;5046644;28;20560;-70
2021/10/10 09:18:38;;;;;;;38.13;35.10;;;10.90;74.80;;;;;;5048236;28;20451;-70
2021/10/10 09:21:22;;;;;;;41.23;37.67;;;10.90;74.60;;;;;;5058376;28;20494;-69
2021/10/10 09:23:56;;;;;;;37.73;34.43;;;11.00;74.80;;;;;;5047501;28;20470;-70
2021/10/10 09:26:23;;;;;;;39.37;35.33;;;11.20;73.70;;;;;;5048638;28;20537;-70
2021/10/10 09:28:51;;;;;;;39.40;36.00;;;11.20;74.90;;;;;;5043953;28;20547;-70
2021/10/10 09:31:19;;;;;;;36.60;33.60;;;11.20;73.80;;;;;;5055384;28;20471;-70
2021/10/10 09:33:49;;;;;;;37.73;34.77;;;11.30;73.30;;;;;;5048912;28;20582;-70
2021/10/10 09:36:19;;;;;;;36.77;33.60;;;11.30;71.20;;;;;;5049816;28;20539;-70
2021/10/10 09:38:51;;;;;;;37.47;34.27;;;11.40;71.60;;;;;;5050388;28;20454;-70
2021/10/10 09:41:30;;;;;;;35.63;32.90;;;11.50;71.30;;;;;;5059371;28;20471;-70
2021/10/10 09:44:03;;;;;;;36.57;33.87;;;11.60;70.00;;;;;;5051356;28;20459;-70
2021/10/10 09:46:31;;;;;;;36.37;33.57;;;11.80;69.50;;;;;;5048231;28;20487;-70
2021/10/10 09:48:58;;;;;;;38.70;35.90;;;11.90;69.00;;;;;;5049558;28;20466;-70
2021/10/10 09:51:31;;;;;;;35.67;32.97;;;11.90;68.30;;;;;;5049617;28;20474;-70
2021/10/10 09:54:02;;;;;;;36.10;33.30;;;12.10;67.80;;;;;;5042798;28;20487;-70
2021/10/10 09:56:30;;;;;;;37.27;34.17;;;11.90;68.60;;;;;;5048033;28;20550;-69
2021/10/10 09:58:57;;;;;;;36.87;34.10;;;11.90;68.60;;;;;;5049114;28;20455;-69
2021/10/10 10:01:25;;;;;;;37.30;34.17;;;12.00;69.60;;;;;;5047230;28;20502;-70
2021/10/10 10:03:56;;;;;;;36.90;34.20;;;12.00;70.00;;;;;;5044942;28;20833;-70
2021/10/10 10:06:26;;;;;;;37.00;34.17;;;12.20;68.20;;;;;;5045690;28;20991;-70
2021/10/10 10:08:54;;;;;;;33.80;31.20;;;12.30;65.90;;;;;;5049298;28;20451;-70
2021/10/10 10:11:22;;;;;;;34.47;31.57;;;12.30;66.80;;;;;;5041435;28;20480;-70
2021/10/10 10:13:52;;;;;;;32.13;29.77;;;12.50;65.30;;;;;;5035902;28;20475;-69
2021/10/10 10:16:22;;;;;;;34.67;31.83;;;12.40;65.50;;;;;;5047261;28;20466;-69
2021/10/10 10:18:50;;;;;;;34.90;32.30;;;12.50;65.40;;;;;;5049332;28;20481;-69
2021/10/10 10:21:17;;;;;;;35.50;32.50;;;12.50;64.90;;;;;;5048117;28;20493;-69
2021/10/10 10:23:45;;;;;;;33.50;31.13;;;12.50;65.60;;;;;;5048078;28;20465;-70
2021/10/10 10:26:13;;;;;;;35.07;32.07;;;12.80;66.10;;;;;;5046415;28;20455;-69
2021/10/10 10:28:40;;;;;;;36.20;33.13;;;12.90;66.10;;;;;;5058292;28;20454;-70
2021/10/10 10:31:13;;;;;;;34.43;31.93;;;13.00;66.90;;;;;;5044563;28;20478;-70
2021/10/10 10:33:40;;;;;;;36.30;33.20;;;13.20;67.10;;;;;;5044546;28;21006;-70
2021/10/10 10:36:07;;;;;;;32.80;30.37;;;13.30;66.10;;;;;;5053570;28;21773;-70
2021/10/10 10:38:44;;;;;;;35.70;32.90;;;13.40;66.20;;;;;;5043987;28;21059;-70
2021/10/10 10:41:45;;;;;;;35.87;33.13;;;13.50;65.10;;;;;;5045683;28;20573;-70
2021/10/10 10:44:36;;;;;;;37.30;34.30;;;13.50;65.40;;;;;;5036704;28;20451;-70
2021/10/10 10:47:06;;;;;;;37.20;34.40;;;13.50;65.50;;;;;;5045709;28;20469;-70
2021/10/10 10:49:59;;;;;;;37.90;35.00;;;13.50;65.00;;;;;;5044405;28;20463;-70
2021/10/10 10:52:28;;;;;;;37.33;34.13;;;13.30;65.70;;;;;;5042599;28;20487;-70
2021/10/10 10:54:56;;;;;;;36.97;33.97;;;13.30;65.70;;;;;;5045605;28;20463;-70
2021/10/10 10:57:33;;;;;;;37.10;34.10;;;13.20;65.40;;;;;;5048050;28;20459;-70
2021/10/10 11:00:02;;;;;;;36.53;33.83;;;13.10;66.60;;;;;;5041186;28;20864;-70
2021/10/10 11:03:01;;;;;;;35.17;32.43;;;13.20;66.60;;;;;;5044937;28;20875;-70
2021/10/10 11:05:44;;;;;;;37.97;34.90;;;13.30;66.30;;;;;;5028781;28;20545;-70
2021/10/10 11:08:42;;;;;;;34.77;32.37;;;13.50;67.50;;;;;;5042742;28;20821;-70
2021/10/10 11:11:13;;;;;;;35.40;32.67;;;13.60;67.10;;;;;;5049533;28;20509;-70
2021/10/10 11:13:42;;;;;;;35.47;32.70;;;13.80;66.20;;;;;;5050168;28;20455;-70
2021/10/10 11:16:11;;;;;;;35.57;32.93;;;13.90;65.40;;;;;;5046634;28;20972;-70
2021/10/10 11:18:45;;;;;;;37.20;33.83;;;14.00;64.40;;;;;;5051925;28;20945;-70
2021/10/10 11:21:13;;;;;;;36.63;33.90;;;14.00;64.40;;;;;;5046674;28;20514;-70
2021/10/10 11:23:41;;;;;;;35.50;32.87;;;14.20;63.30;;;;;;5051531;28;20454;-70
2021/10/10 11:26:09;;;;;;;35.67;32.97;;;14.20;63.40;;;;;;5046646;28;20482;-70
2021/10/10 11:28:39;;;;;;;35.60;32.77;;;14.10;63.60;;;;;;5041846;28;20454;-71
2021/10/10 11:31:11;;;;;;;37.20;34.40;;;14.00;63.70;;;;;;5044339;28;20471;-70
2021/10/10 11:33:39;;;;;;;38.33;35.33;;;13.90;64.20;;;;;;5057562;28;20458;-72
2021/10/10 11:36:07;;;;;;;35.47;32.97;;;13.80;64.50;;;;;;5046924;28;20471;-72
2021/10/10 11:38:55;;;;;;;38.00;34.70;;;14.10;63.40;;;;;;5050950;28;20959;-71
2021/10/10 11:41:23;;;;;;;35.00;32.40;;;14.20;62.90;;;;;;5053033;28;20489;-70
2021/10/10 11:44:01;;;;;;;37.17;34.03;;;14.20;63.20;;;;;;5048556;28;20452;-70
2021/10/10 11:46:42;;;;;;;37.33;34.47;;;14.10;63.60;;;;;;5048206;28;20457;-71
2021/10/10 11:49:40;;;;;;;36.97;34.13;;;14.20;63.30;;;;;;5050461;28;20451;-71
2021/10/10 11:52:19;;;;;;;36.53;33.57;;;14.40;62.80;;;;;;5041712;28;20997;-70
2021/10/10 11:54:49;;;;;;;38.93;34.40;;;14.40;63.00;;;;;;5051928;28;20494;-69
2021/10/10 16:50:12;;;;;;;32.27;29.87;;;11.40;75.30;;;;;;5071873;27;20580;-73
2021/10/10 16:52:40;;;;;;;30.87;28.67;;;11.50;75.40;;;;;;5045315;28;20481;-71
2021/10/10 16:55:08;;;;;;;30.30;28.13;;;11.60;74.80;;;;;;5034332;28;20545;-70
2021/10/10 16:57:34;;;;;;;31.50;29.20;;;11.80;74.40;;;;;;5035512;28;20455;-71
2021/10/10 17:00:03;;;;;;;30.37;28.30;;;11.80;74.20;;;;;;5035045;28;20456;-71
2021/10/10 17:02:30;;;;;;;31.43;29.23;;;11.90;74.40;;;;;;5033917;28;20501;-70
2021/10/10 17:04:56;;;;;;;29.13;27.13;;;11.80;74.70;;;;;;5035667;28;20538;-71
2021/10/10 17:07:25;;;;;;;29.80;27.80;;;11.70;75.00;;;;;;5036527;28;20558;-71
2021/10/10 17:09:56;;;;;;;29.30;27.40;;;11.60;75.20;;;;;;5029674;28;20476;-70
2021/10/10 17:12:23;;;;;;;29.87;27.77;;;11.50;75.50;;;;;;5031897;28;20462;-70
2021/10/10 17:14:50;;;;;;;33.50;31.00;;;11.40;75.80;;;;;;5032150;28;20460;-70
2021/10/10 17:17:17;;;;;;;31.80;29.57;;;11.30;75.80;;;;;;5031218;28;20462;-70
2021/10/10 17:19:44;;;;;;;29.80;27.90;;;11.20;75.80;;;;;;5033489;28;20452;-70
2021/10/10 17:22:11;;;;;;;29.73;27.73;;;11.20;76.50;;;;;;5032141;28;20486;-70
2021/10/10 17:24:39;;;;;;;30.10;27.90;;;11.10;76.90;;;;;;5031648;28;20467;-70
2021/10/10 17:27:06;;;;;;;31.00;28.80;;;11.00;77.20;;;;;;5038806;28;20574;-71
2021/10/10 17:29:33;;;;;;;29.87;27.70;;;10.90;77.60;;;;;;5034413;28;20537;-70
2021/10/10 17:32:00;;;;;;;29.20;27.20;;;10.80;77.60;;;;;;5039131;28;21008;-71
2021/10/10 17:34:28;;;;;;;29.03;27.13;;;10.80;77.30;;;;;;5042329;28;20479;-70
2021/10/10 17:36:56;;;;;;;32.10;28.40;;;10.70;77.90;;;;;;5046668;28;20828;-71